Ephesus, Georgia
Current Conditions -  °F | °C
As of 8:35 PM on Monday 24 Nov 2014 (Local Time) from KCCO Reporting Station
Clear Clear  
Wind Chill: 59°   Ceiling: Unl
Heat Index: 59°   Visibility: 10mi
Dew Point: 53°   Wind: 0mph
Humidity: 79%   Direction: NA
Pressure: 29.95"   Gusts: NA
Location:  33.4261°N, 85.1637°W
Report Text: KCCO 250135Z AUTO 00000KT 10SM CLR 15/11 A2995 RMK AO2 T01510114
Loading
Personal Weather Stations






























Interactive Weather Map New forecast layout! Learn more

10-Day Weather Forecast

Advertisements
Track Severe Weather on mobile